sensor_id;sensor_type;location;lat;lon;timestamp;pressure;altitude;pressure_sealevel;temperature;humidity
76730;BME280;65653;53.106;18.046;2023-04-07T00:01:19;101186.86;;;2.01;86.43
76730;BME280;65653;53.106;18.046;2023-04-07T00:03:46;101184.06;;;1.98;86.20
76730;BME280;65653;53.106;18.046;2023-04-07T00:06:13;101182.23;;;1.96;86.74
76730;BME280;65653;53.106;18.046;2023-04-07T00:08:39;101182.13;;;1.93;87.28
76730;BME280;65653;53.106;18.046;2023-04-07T00:11:06;101177.15;;;1.94;87.22
76730;BME280;65653;53.106;18.046;2023-04-07T00:13:34;101178.45;;;1.95;87.78
76730;BME280;65653;53.106;18.046;2023-04-07T00:16:01;101175.64;;;1.95;87.81
76730;BME280;65653;53.106;18.046;2023-04-07T00:18:27;101174.77;;;1.92;87.72
76730;BME280;65653;53.106;18.046;2023-04-07T00:20:54;101173.69;;;1.90;88.28
76730;BME280;65653;53.106;18.046;2023-04-07T00:23:21;101169.02;;;1.87;89.07
76730;BME280;65653;53.106;18.046;2023-04-07T00:25:47;101167.95;;;1.87;89.40
76730;BME280;65653;53.106;18.046;2023-04-07T00:28:14;101165.16;;;1.89;89.35
76730;BME280;65653;53.106;18.046;2023-04-07T00:30:42;101164.94;;;1.94;88.74
76730;BME280;65653;53.106;18.046;2023-04-07T00:33:09;101162.30;;;1.99;88.89
76730;BME280;65653;53.106;18.046;2023-04-07T00:35:36;101163.63;;;2.00;88.89
76730;BME280;65653;53.106;18.046;2023-04-07T00:38:02;101158.64;;;1.99;88.72
76730;BME280;65653;53.106;18.046;2023-04-07T00:40:29;101158.59;;;1.97;89.01
76730;BME280;65653;53.106;18.046;2023-04-07T00:42:56;101154.23;;;1.95;89.33
76730;BME280;65653;53.106;18.046;2023-04-07T00:45:23;101153.77;;;1.92;89.42
76730;BME280;65653;53.106;18.046;2023-04-07T00:47:49;101149.00;;;1.95;89.38
76730;BME280;65653;53.106;18.046;2023-04-07T00:50:17;101147.20;;;1.96;89.80
76730;BME280;65653;53.106;18.046;2023-04-07T00:52:45;101147.55;;;1.97;88.70
76730;BME280;65653;53.106;18.046;2023-04-07T00:55:11;101152.13;;;1.98;89.19
76730;BME280;65653;53.106;18.046;2023-04-07T00:57:38;101150.13;;;1.96;89.42
76730;BME280;65653;53.106;18.046;2023-04-07T01:00:05;101148.27;;;1.97;88.91
76730;BME280;65653;53.106;18.046;2023-04-07T01:02:36;101150.09;;;2.01;88.95
76730;BME280;65653;53.106;18.046;2023-04-07T01:10:55;101145.21;;;2.10;89.55
76730;BME280;65653;53.106;18.046;2023-04-07T01:13:28;101138.34;;;2.07;89.57
76730;BME280;65653;53.106;18.046;2023-04-07T01:16:00;101135.15;;;2.03;90.18
76730;BME280;65653;53.106;18.046;2023-04-07T01:18:31;101131.16;;;1.99;90.02
76730;BME280;65653;53.106;18.046;2023-04-07T01:21:03;101131.50;;;1.99;90.14
76730;BME280;65653;53.106;18.046;2023-04-07T01:23:44;101129.05;;;2.00;90.33
76730;BME280;65653;53.106;18.046;2023-04-07T01:26:18;101125.33;;;2.02;90.40
76730;BME280;65653;53.106;18.046;2023-04-07T01:31:33;101115.27;;;2.03;90.29
76730;BME280;65653;53.106;18.046;2023-04-07T01:34:03;101115.73;;;2.02;90.27
76730;BME280;65653;53.106;18.046;2023-04-07T01:36:31;101111.30;;;2.05;89.70
76730;BME280;65653;53.106;18.046;2023-04-07T01:38:59;101111.86;;;2.07;90.18
76730;BME280;65653;53.106;18.046;2023-04-07T01:41:27;101107.63;;;2.09;90.02
76730;BME280;65653;53.106;18.046;2023-04-07T01:43:55;101111.74;;;2.11;90.04
76730;BME280;65653;53.106;18.046;2023-04-07T01:46:23;101107.98;;;2.15;90.05
76730;BME280;65653;53.106;18.046;2023-04-07T01:48:51;101106.69;;;2.17;90.36
76730;BME280;65653;53.106;18.046;2023-04-07T01:51:19;101104.56;;;2.14;90.05
76730;BME280;65653;53.106;18.046;2023-04-07T01:53:48;101105.60;;;2.13;90.06
76730;BME280;65653;53.106;18.046;2023-04-07T01:56:15;101100.31;;;2.11;90.10
76730;BME280;65653;53.106;18.046;2023-04-07T01:58:42;101103.41;;;2.15;89.62
76730;BME280;65653;53.106;18.046;2023-04-07T02:01:09;101103.84;;;2.18;89.75
76730;BME280;65653;53.106;18.046;2023-04-07T02:03:43;101104.19;;;2.19;89.74
76730;BME280;65653;53.106;18.046;2023-04-07T02:06:16;101105.91;;;2.22;90.37
76730;BME280;65653;53.106;18.046;2023-04-07T02:08:48;101102.54;;;2.23;89.84
76730;BME280;65653;53.106;18.046;2023-04-07T02:11:17;101101.02;;;2.25;89.62
76730;BME280;65653;53.106;18.046;2023-04-07T02:13:46;101100.09;;;2.25;89.82
76730;BME280;65653;53.106;18.046;2023-04-07T02:16:13;101103.94;;;2.24;90.01
76730;BME280;65653;53.106;18.046;2023-04-07T02:18:43;101104.73;;;2.23;90.69
76730;BME280;65653;53.106;18.046;2023-04-07T02:21:14;101104.32;;;2.23;90.76
76730;BME280;65653;53.106;18.046;2023-04-07T02:23:41;101103.17;;;2.26;90.45
76730;BME280;65653;53.106;18.046;2023-04-07T02:26:08;101104.40;;;2.30;90.50
76730;BME280;65653;53.106;18.046;2023-04-07T02:28:35;101097.02;;;2.31;90.91
76730;BME280;65653;53.106;18.046;2023-04-07T02:31:01;101096.41;;;2.30;91.06
76730;BME280;65653;53.106;18.046;2023-04-07T02:33:28;101089.90;;;2.27;91.77
76730;BME280;65653;53.106;18.046;2023-04-07T02:35:55;101087.52;;;2.23;91.91
76730;BME280;65653;53.106;18.046;2023-04-07T02:38:22;101083.52;;;2.25;91.47
76730;BME280;65653;53.106;18.046;2023-04-07T02:40:48;101076.16;;;2.26;91.88
76730;BME280;65653;53.106;18.046;2023-04-07T02:43:15;101080.39;;;2.28;91.54
76730;BME280;65653;53.106;18.046;2023-04-07T02:45:43;101074.15;;;2.32;91.14
76730;BME280;65653;53.106;18.046;2023-04-07T02:48:09;101073.20;;;2.34;91.39
76730;BME280;65653;53.106;18.046;2023-04-07T02:50:37;101069.64;;;2.37;91.25
76730;BME280;65653;53.106;18.046;2023-04-07T02:53:04;101068.89;;;2.37;91.26
76730;BME280;65653;53.106;18.046;2023-04-07T02:55:30;101069.05;;;2.36;91.65
76730;BME280;65653;53.106;18.046;2023-04-07T02:57:57;101069.91;;;2.32;91.95
76730;BME280;65653;53.106;18.046;2023-04-07T03:00:24;101070.09;;;2.36;91.53
76730;BME280;65653;53.106;18.046;2023-04-07T03:02:51;101066.52;;;2.39;91.16
76730;BME280;65653;53.106;18.046;2023-04-07T03:05:18;101069.66;;;2.41;91.56
76730;BME280;65653;53.106;18.046;2023-04-07T03:07:44;101063.36;;;2.42;91.24
76730;BME280;65653;53.106;18.046;2023-04-07T03:10:11;101065.23;;;2.43;91.53
76730;BME280;65653;53.106;18.046;2023-04-07T03:12:38;101062.58;;;2.44;91.36
76730;BME280;65653;53.106;18.046;2023-04-07T03:15:05;101061.38;;;2.45;91.78
76730;BME280;65653;53.106;18.046;2023-04-07T03:17:32;101058.61;;;2.46;92.18
76730;BME280;65653;53.106;18.046;2023-04-07T03:19:59;101058.58;;;2.44;92.40
76730;BME280;65653;53.106;18.046;2023-04-07T03:22:26;101055.33;;;2.44;92.00
76730;BME280;65653;53.106;18.046;2023-04-07T03:24:53;101054.83;;;2.45;91.70
76730;BME280;65653;53.106;18.046;2023-04-07T03:27:20;101057.80;;;2.48;91.86
76730;BME280;65653;53.106;18.046;2023-04-07T03:29:47;101050.98;;;2.51;92.00
76730;BME280;65653;53.106;18.046;2023-04-07T03:32:14;101049.57;;;2.53;92.29
76730;BME280;65653;53.106;18.046;2023-04-07T03:34:40;101049.88;;;2.51;91.53
76730;BME280;65653;53.106;18.046;2023-04-07T03:37:07;101046.44;;;2.52;91.43
76730;BME280;65653;53.106;18.046;2023-04-07T03:39:33;101046.39;;;2.53;92.03
76730;BME280;65653;53.106;18.046;2023-04-07T03:42:02;101043.70;;;2.55;92.17
76730;BME280;65653;53.106;18.046;2023-04-07T03:44:29;101043.92;;;2.58;91.94
76730;BME280;65653;53.106;18.046;2023-04-07T03:46:55;101041.70;;;2.60;92.02
76730;BME280;65653;53.106;18.046;2023-04-07T03:49:22;101044.82;;;2.62;92.25
76730;BME280;65653;53.106;18.046;2023-04-07T03:51:49;101046.66;;;2.62;91.64
76730;BME280;65653;53.106;18.046;2023-04-07T03:54:16;101046.52;;;2.62;91.35
76730;BME280;65653;53.106;18.046;2023-04-07T03:56:42;101050.73;;;2.61;91.26
76730;BME280;65653;53.106;18.046;2023-04-07T03:59:09;101048.84;;;2.60;91.16
76730;BME280;65653;53.106;18.046;2023-04-07T04:01:36;101047.36;;;2.64;90.99
76730;BME280;65653;53.106;18.046;2023-04-07T04:04:03;101047.64;;;2.70;91.29
76730;BME280;65653;53.106;18.046;2023-04-07T04:06:29;101044.11;;;2.77;91.28
76730;BME280;65653;53.106;18.046;2023-04-07T04:08:56;101045.51;;;2.83;91.05
76730;BME280;65653;53.106;18.046;2023-04-07T04:11:23;101044.77;;;2.89;90.96
76730;BME280;65653;53.106;18.046;2023-04-07T04:13:50;101043.96;;;2.92;90.61
76730;BME280;65653;53.106;18.046;2023-04-07T04:16:16;101046.73;;;2.97;90.69
76730;BME280;65653;53.106;18.046;2023-04-07T04:18:43;101046.04;;;3.00;90.57
76730;BME280;65653;53.106;18.046;2023-04-07T04:21:09;101047.89;;;2.98;90.42
76730;BME280;65653;53.106;18.046;2023-04-07T04:23:36;101048.13;;;2.98;90.56
76730;BME280;65653;53.106;18.046;2023-04-07T04:26:03;101046.92;;;2.97;91.18
76730;BME280;65653;53.106;18.046;2023-04-07T04:28:29;101045.22;;;2.98;91.48
76730;BME280;65653;53.106;18.046;2023-04-07T04:30:56;101043.35;;;3.00;91.51
76730;BME280;65653;53.106;18.046;2023-04-07T04:33:23;101046.00;;;3.04;91.61
76730;BME280;65653;53.106;18.046;2023-04-07T04:35:52;101043.16;;;3.09;91.51
76730;BME280;65653;53.106;18.046;2023-04-07T04:38:18;101043.24;;;3.12;91.53
76730;BME280;65653;53.106;18.046;2023-04-07T04:40:45;101043.58;;;3.14;91.40
76730;BME280;65653;53.106;18.046;2023-04-07T04:43:12;101042.82;;;3.16;91.85
76730;BME280;65653;53.106;18.046;2023-04-07T04:45:39;101046.44;;;3.18;91.82
76730;BME280;65653;53.106;18.046;2023-04-07T04:48:05;101048.73;;;3.21;91.92
76730;BME280;65653;53.106;18.046;2023-04-07T04:50:32;101048.30;;;3.23;92.26
76730;BME280;65653;53.106;18.046;2023-04-07T04:52:58;101049.22;;;3.23;92.30
76730;BME280;65653;53.106;18.046;2023-04-07T04:55:25;101047.86;;;3.24;92.15
76730;BME280;65653;53.106;18.046;2023-04-07T04:57:51;101047.77;;;3.27;92.33
76730;BME280;65653;53.106;18.046;2023-04-07T05:00:21;101045.96;;;3.30;91.88
76730;BME280;65653;53.106;18.046;2023-04-07T05:02:48;101045.96;;;3.36;92.07
76730;BME280;65653;53.106;18.046;2023-04-07T05:05:15;101045.48;;;3.39;92.10
76730;BME280;65653;53.106;18.046;2023-04-07T05:07:42;101043.98;;;3.41;91.61
76730;BME280;65653;53.106;18.046;2023-04-07T05:10:08;101044.66;;;3.43;91.66
76730;BME280;65653;53.106;18.046;2023-04-07T05:12:35;101042.13;;;3.45;91.83
76730;BME280;65653;53.106;18.046;2023-04-07T05:15:02;101044.88;;;3.48;91.83
76730;BME280;65653;53.106;18.046;2023-04-07T05:17:28;101045.77;;;3.52;91.92
76730;BME280;65653;53.106;18.046;2023-04-07T05:19:54;101045.46;;;3.55;91.88
76730;BME280;65653;53.106;18.046;2023-04-07T05:22:21;101044.68;;;3.58;91.85
76730;BME280;65653;53.106;18.046;2023-04-07T05:24:48;101046.16;;;3.57;92.08
76730;BME280;65653;53.106;18.046;2023-04-07T05:27:15;101047.41;;;3.59;91.98
76730;BME280;65653;53.106;18.046;2023-04-07T05:29:41;101046.90;;;3.65;91.76
76730;BME280;65653;53.106;18.046;2023-04-07T05:32:08;101048.01;;;3.70;91.88
76730;BME280;65653;53.106;18.046;2023-04-07T05:34:35;101047.27;;;3.74;91.80
76730;BME280;65653;53.106;18.046;2023-04-07T05:37:02;101044.91;;;3.77;91.46
76730;BME280;65653;53.106;18.046;2023-04-07T05:39:29;101046.27;;;3.78;91.50
76730;BME280;65653;53.106;18.046;2023-04-07T05:41:55;101051.59;;;3.76;91.72
76730;BME280;65653;53.106;18.046;2023-04-07T05:44:23;101048.30;;;3.76;92.01
76730;BME280;65653;53.106;18.046;2023-04-07T05:46:50;101049.65;;;3.79;91.75
76730;BME280;65653;53.106;18.046;2023-04-07T05:49:17;101047.59;;;3.81;91.73
76730;BME280;65653;53.106;18.046;2023-04-07T05:51:43;101046.17;;;3.85;91.53
76730;BME280;65653;53.106;18.046;2023-04-07T05:54:10;101048.53;;;3.88;91.48
76730;BME280;65653;53.106;18.046;2023-04-07T05:56:36;101048.78;;;3.89;91.48
76730;BME280;65653;53.106;18.046;2023-04-07T05:59:02;101043.73;;;3.91;91.66
76730;BME280;65653;53.106;18.046;2023-04-07T06:01:29;101041.09;;;3.91;91.78
76730;BME280;65653;53.106;18.046;2023-04-07T06:03:56;101039.29;;;3.93;91.90
76730;BME280;65653;53.106;18.046;2023-04-07T06:06:24;101038.29;;;3.97;91.81
76730;BME280;65653;53.106;18.046;2023-04-07T06:08:52;101040.77;;;4.05;91.90
76730;BME280;65653;53.106;18.046;2023-04-07T06:11:18;101041.91;;;4.10;91.81
76730;BME280;65653;53.106;18.046;2023-04-07T06:13:46;101044.29;;;4.13;91.62
76730;BME280;65653;53.106;18.046;2023-04-07T06:16:13;101044.55;;;4.16;91.48
76730;BME280;65653;53.106;18.046;2023-04-07T06:18:39;101046.46;;;4.19;91.44
76730;BME280;65653;53.106;18.046;2023-04-07T06:21:06;101051.80;;;4.20;91.51
76730;BME280;65653;53.106;18.046;2023-04-07T06:23:33;101052.48;;;4.23;91.45
76730;BME280;65653;53.106;18.046;2023-04-07T06:25:59;101058.39;;;4.25;91.42
76730;BME280;65653;53.106;18.046;2023-04-07T06:28:29;101055.27;;;4.25;91.42
76730;BME280;65653;53.106;18.046;2023-04-07T06:30:55;101051.29;;;4.29;91.45
76730;BME280;65653;53.106;18.046;2023-04-07T06:33:21;101053.11;;;4.40;91.04
76730;BME280;65653;53.106;18.046;2023-04-07T06:35:50;101052.30;;;4.46;91.06
76730;BME280;65653;53.106;18.046;2023-04-07T06:38:18;101054.55;;;4.47;90.80
76730;BME280;65653;53.106;18.046;2023-04-07T06:40:45;101055.03;;;4.48;91.13
76730;BME280;65653;53.106;18.046;2023-04-07T06:43:13;101052.14;;;4.53;91.04
76730;BME280;65653;53.106;18.046;2023-04-07T06:49:47;101047.77;;;4.63;91.08
76730;BME280;65653;53.106;18.046;2023-04-07T06:55:51;101041.42;;;4.72;90.74
76730;BME280;65653;53.106;18.046;2023-04-07T06:58:53;101041.31;;;4.80;90.52
76730;BME280;65653;53.106;18.046;2023-04-07T07:01:41;101044.29;;;4.88;90.31
76730;BME280;65653;53.106;18.046;2023-04-07T07:04:08;101040.63;;;4.93;90.19
76730;BME280;65653;53.106;18.046;2023-04-07T07:06:35;101042.17;;;4.96;90.15
76730;BME280;65653;53.106;18.046;2023-04-07T07:09:01;101041.27;;;4.96;90.22
76730;BME280;65653;53.106;18.046;2023-04-07T07:11:28;101046.69;;;4.98;90.35
76730;BME280;65653;53.106;18.046;2023-04-07T07:13:55;101047.54;;;5.06;90.11
76730;BME280;65653;53.106;18.046;2023-04-07T07:16:21;101051.85;;;5.11;89.84
76730;BME280;65653;53.106;18.046;2023-04-07T07:18:51;101046.64;;;5.15;89.65
76730;BME280;65653;53.106;18.046;2023-04-07T07:21:18;101048.67;;;5.16;89.71
76730;BME280;65653;53.106;18.046;2023-04-07T07:23:44;101054.77;;;5.14;89.63
76730;BME280;65653;53.106;18.046;2023-04-07T07:26:11;101055.87;;;5.16;89.77
76730;BME280;65653;53.106;18.046;2023-04-07T07:28:37;101060.41;;;5.18;89.94
76730;BME280;65653;53.106;18.046;2023-04-07T07:31:10;101052.36;;;5.24;89.90
76730;BME280;65653;53.106;18.046;2023-04-07T07:33:41;101058.02;;;5.30;89.74
76730;BME280;65653;53.106;18.046;2023-04-07T07:36:09;101058.02;;;5.31;89.64
76730;BME280;65653;53.106;18.046;2023-04-07T07:38:35;101059.23;;;5.32;89.55
76730;BME280;65653;53.106;18.046;2023-04-07T07:41:02;101061.04;;;5.30;89.57
76730;BME280;65653;53.106;18.046;2023-04-07T07:43:28;101060.26;;;5.38;89.46
76730;BME280;65653;53.106;18.046;2023-04-07T07:45:55;101063.77;;;5.44;89.53
76730;BME280;65653;53.106;18.046;2023-04-07T07:48:21;101063.63;;;5.44;89.42
76730;BME280;65653;53.106;18.046;2023-04-07T07:50:48;101065.17;;;5.46;89.57
76730;BME280;65653;53.106;18.046;2023-04-07T07:53:16;101061.45;;;5.50;89.46
76730;BME280;65653;53.106;18.046;2023-04-07T07:55:42;101065.06;;;5.51;89.47
76730;BME280;65653;53.106;18.046;2023-04-07T07:58:12;101062.77;;;5.51;89.30
76730;BME280;65653;53.106;18.046;2023-04-07T08:00:39;101058.65;;;5.59;89.25
76730;BME280;65653;53.106;18.046;2023-04-07T08:03:06;101062.78;;;5.77;89.08
76730;BME280;65653;53.106;18.046;2023-04-07T08:05:32;101056.86;;;5.86;88.66
76730;BME280;65653;53.106;18.046;2023-04-07T08:07:59;101055.46;;;5.99;88.31
76730;BME280;65653;53.106;18.046;2023-04-07T08:10:26;101050.05;;;6.17;87.89
76730;BME280;65653;53.106;18.046;2023-04-07T08:12:53;101049.61;;;6.23;87.51
76730;BME280;65653;53.106;18.046;2023-04-07T08:15:19;101054.20;;;6.33;87.49
76730;BME280;65653;53.106;18.046;2023-04-07T08:17:46;101056.31;;;6.38;86.99
76730;BME280;65653;53.106;18.046;2023-04-07T08:20:14;101060.96;;;6.41;86.98
76730;BME280;65653;53.106;18.046;2023-04-07T08:22:41;101062.68;;;6.40;86.98
76730;BME280;65653;53.106;18.046;2023-04-07T08:25:09;101063.40;;;6.46;87.08
76730;BME280;65653;53.106;18.046;2023-04-07T08:27:38;101069.57;;;6.50;87.19
76730;BME280;65653;53.106;18.046;2023-04-07T08:30:05;101066.91;;;6.49;86.93
76730;BME280;65653;53.106;18.046;2023-04-07T08:32:37;101072.97;;;6.57;86.89
76730;BME280;65653;53.106;18.046;2023-04-07T08:35:04;101064.70;;;6.67;86.70
76730;BME280;65653;53.106;18.046;2023-04-07T08:37:32;101056.23;;;6.86;86.43
76730;BME280;65653;53.106;18.046;2023-04-07T08:40:00;101055.70;;;6.99;86.33
76730;BME280;65653;53.106;18.046;2023-04-07T08:42:29;101056.17;;;7.12;85.80
76730;BME280;65653;53.106;18.046;2023-04-07T08:44:57;101052.36;;;7.16;84.94
76730;BME280;65653;53.106;18.046;2023-04-07T08:47:25;101047.48;;;7.22;84.77
76730;BME280;65653;53.106;18.046;2023-04-07T08:49:56;101051.95;;;7.36;84.61
76730;BME280;65653;53.106;18.046;2023-04-07T08:52:33;101050.94;;;7.48;84.47
76730;BME280;65653;53.106;18.046;2023-04-07T08:55:02;101048.94;;;7.51;84.18
76730;BME280;65653;53.106;18.046;2023-04-07T08:57:29;101048.85;;;7.67;84.22
76730;BME280;65653;53.106;18.046;2023-04-07T09:00:00;101051.62;;;7.71;83.64
76730;BME280;65653;53.106;18.046;2023-04-07T09:02:36;101053.27;;;7.64;83.60
76730;BME280;65653;53.106;18.046;2023-04-07T09:05:05;101052.36;;;7.65;84.17
76730;BME280;65653;53.106;18.046;2023-04-07T09:07:34;101058.84;;;7.69;83.90
76730;BME280;65653;53.106;18.046;2023-04-07T09:10:02;101057.42;;;7.58;83.81
76730;BME280;65653;53.106;18.046;2023-04-07T09:12:29;101062.74;;;7.46;83.90
76730;BME280;65653;53.106;18.046;2023-04-07T09:14:56;101058.46;;;7.55;84.21
76730;BME280;65653;53.106;18.046;2023-04-07T09:17:28;101059.23;;;7.66;84.10
76730;BME280;65653;53.106;18.046;2023-04-07T09:19:56;101054.23;;;7.56;84.16
76730;BME280;65653;53.106;18.046;2023-04-07T09:22:43;101052.81;;;7.49;84.18
76730;BME280;65653;53.106;18.046;2023-04-07T09:29:05;101054.38;;;7.62;84.41
76730;BME280;65653;53.106;18.046;2023-04-07T09:31:49;101047.60;;;7.76;83.98
76730;BME280;65653;53.106;18.046;2023-04-07T09:34:28;101045.88;;;8.00;83.46
76730;BME280;65653;53.106;18.046;2023-04-07T09:36:55;101037.64;;;8.04;83.01
76730;BME280;65653;53.106;18.046;2023-04-07T09:39:23;101037.23;;;8.21;83.14
76730;BME280;65653;53.106;18.046;2023-04-07T09:41:50;101035.39;;;8.38;82.42
76730;BME280;65653;53.106;18.046;2023-04-07T09:44:18;101031.27;;;8.49;82.20
76730;BME280;65653;53.106;18.046;2023-04-07T09:46:56;101025.59;;;8.65;82.29
76730;BME280;65653;53.106;18.046;2023-04-07T09:49:24;101025.63;;;8.69;82.20
76730;BME280;65653;53.106;18.046;2023-04-07T09:51:56;101023.73;;;8.68;81.91
76730;BME280;65653;53.106;18.046;2023-04-07T09:54:31;101020.17;;;8.85;81.72
76730;BME280;65653;53.106;18.046;2023-04-07T09:57:02;101019.29;;;9.05;80.72
76730;BME280;65653;53.106;18.046;2023-04-07T09:59:30;101018.84;;;9.14;80.63
76730;BME280;65653;53.106;18.046;2023-04-07T10:01:58;101021.48;;;9.32;80.99
76730;BME280;65653;53.106;18.046;2023-04-07T10:04:25;101016.09;;;9.34;80.29
76730;BME280;65653;53.106;18.046;2023-04-07T10:06:52;101023.06;;;9.40;80.20
76730;BME280;65653;53.106;18.046;2023-04-07T10:09:23;101021.61;;;9.63;80.21
76730;BME280;65653;53.106;18.046;2023-04-07T10:11:52;101020.23;;;9.77;79.74
76730;BME280;65653;53.106;18.046;2023-04-07T10:14:25;101015.00;;;9.97;79.83
76730;BME280;65653;53.106;18.046;2023-04-07T10:16:52;101018.08;;;10.05;78.59
76730;BME280;65653;53.106;18.046;2023-04-07T10:19:20;101018.76;;;9.91;78.57
76730;BME280;65653;53.106;18.046;2023-04-07T10:21:50;101019.80;;;9.73;78.37
76730;BME280;65653;53.106;18.046;2023-04-07T10:24:45;101024.60;;;9.64;79.45
76730;BME280;65653;53.106;18.046;2023-04-07T10:27:21;101019.02;;;9.73;79.72
76730;BME280;65653;53.106;18.046;2023-04-07T10:29:50;101015.64;;;9.74;79.00
76730;BME280;65653;53.106;18.046;2023-04-07T10:32:18;101014.16;;;9.75;79.57
76730;BME280;65653;53.106;18.046;2023-04-07T10:37:21;101012.88;;;10.14;79.03
76730;BME280;65653;53.106;18.046;2023-04-07T10:39:49;101014.52;;;10.08;77.70
76730;BME280;65653;53.106;18.046;2023-04-07T10:45:06;101009.64;;;10.05;78.28
76730;BME280;65653;53.106;18.046;2023-04-07T10:47:34;101015.02;;;10.06;78.23
76730;BME280;65653;53.106;18.046;2023-04-07T10:52:41;101014.75;;;10.24;78.36
76730;BME280;65653;53.106;18.046;2023-04-07T10:55:34;101014.88;;;10.10;78.31
76730;BME280;65653;53.106;18.046;2023-04-07T10:58:18;101009.11;;;9.96;78.45
76730;BME280;65653;53.106;18.046;2023-04-07T11:03:33;101012.56;;;9.86;79.19
76730;BME280;65653;53.106;18.046;2023-04-07T11:06:03;101009.23;;;9.92;79.39
76730;BME280;65653;53.106;18.046;2023-04-07T11:08:35;101010.09;;;9.95;78.56
76730;BME280;65653;53.106;18.046;2023-04-07T11:11:03;101011.77;;;9.94;78.60
76730;BME280;65653;53.106;18.046;2023-04-07T11:13:44;101007.27;;;10.08;78.34
76730;BME280;65653;53.106;18.046;2023-04-07T11:16:15;101010.77;;;10.15;77.82
76730;BME280;65653;53.106;18.046;2023-04-07T11:18:45;101010.35;;;10.27;77.32
76730;BME280;65653;53.106;18.046;2023-04-07T11:25:24;100991.86;;;11.30;75.41
76730;BME280;65653;53.106;18.046;2023-04-07T11:31:55;100986.11;;;11.78;74.24
76730;BME280;65653;53.106;18.046;2023-04-07T11:34:34;100986.61;;;11.66;75.19
76730;BME280;65653;53.106;18.046;2023-04-07T11:37:21;100987.73;;;11.44;74.26
76730;BME280;65653;53.106;18.046;2023-04-07T11:39:55;100986.45;;;11.23;75.13
76730;BME280;65653;53.106;18.046;2023-04-07T11:42:38;100987.71;;;11.00;74.78
76730;BME280;65653;53.106;18.046;2023-04-07T11:45:15;100986.56;;;11.42;74.70
76730;BME280;65653;53.106;18.046;2023-04-07T11:47:43;100981.21;;;12.02;72.58
76730;BME280;65653;53.106;18.046;2023-04-07T11:50:11;100979.95;;;12.78;70.64
76730;BME280;65653;53.106;18.046;2023-04-07T11:52:44;100980.96;;;13.47;69.43
76730;BME280;65653;53.106;18.046;2023-04-07T11:55:21;100975.75;;;13.86;68.94
76730;BME280;65653;53.106;18.046;2023-04-07T11:57:50;100972.63;;;14.05;69.02
76730;BME280;65653;53.106;18.046;2023-04-07T12:00:18;100979.96;;;14.01;66.96
76730;BME280;65653;53.106;18.046;2023-04-07T12:02:45;100971.73;;;13.43;69.04
76730;BME280;65653;53.106;18.046;2023-04-07T12:05:12;100966.46;;;13.15;68.16
76730;BME280;65653;53.106;18.046;2023-04-07T12:07:39;100964.08;;;13.65;67.42
76730;BME280;65653;53.106;18.046;2023-04-07T12:10:20;100959.91;;;14.49;64.70
76730;BME280;65653;53.106;18.046;2023-04-07T12:12:47;100960.02;;;14.95;63.79
76730;BME280;65653;53.106;18.046;2023-04-07T12:15:14;100956.34;;;14.87;63.11
76730;BME280;65653;53.106;18.046;2023-04-07T12:17:46;100953.56;;;14.70;63.59
76730;BME280;65653;53.106;18.046;2023-04-07T12:20:14;100950.78;;;14.79;61.94
76730;BME280;65653;53.106;18.046;2023-04-07T12:22:41;100953.61;;;14.75;61.56
76730;BME280;65653;53.106;18.046;2023-04-07T12:25:07;100949.08;;;14.83;62.07
76730;BME280;65653;53.106;18.046;2023-04-07T12:27:34;100946.60;;;15.28;60.98
76730;BME280;65653;53.106;18.046;2023-04-07T12:30:00;100951.13;;;15.68;61.67
76730;BME280;65653;53.106;18.046;2023-04-07T12:32:27;100953.40;;;15.97;58.96
76730;BME280;65653;53.106;18.046;2023-04-07T12:34:54;100955.33;;;15.77;59.83
76730;BME280;65653;53.106;18.046;2023-04-07T12:37:20;100961.52;;;15.76;59.28
76730;BME280;65653;53.106;18.046;2023-04-07T12:39:47;100959.36;;;15.70;60.04
76730;BME280;65653;53.106;18.046;2023-04-07T12:42:13;100955.85;;;15.89;59.59
76730;BME280;65653;53.106;18.046;2023-04-07T12:44:40;100956.73;;;16.07;58.90
76730;BME280;65653;53.106;18.046;2023-04-07T12:47:06;100961.55;;;16.11;58.88
76730;BME280;65653;53.106;18.046;2023-04-07T12:49:33;100958.17;;;15.93;58.72
76730;BME280;65653;53.106;18.046;2023-04-07T12:52:00;100961.08;;;15.77;59.75
76730;BME280;65653;53.106;18.046;2023-04-07T12:54:29;100959.91;;;16.01;58.23
76730;BME280;65653;53.106;18.046;2023-04-07T12:56:55;100962.18;;;15.98;56.93
76730;BME280;65653;53.106;18.046;2023-04-07T12:59:22;100962.90;;;15.64;57.97
76730;BME280;65653;53.106;18.046;2023-04-07T13:01:49;100963.44;;;15.36;59.03
76730;BME280;65653;53.106;18.046;2023-04-07T13:04:16;100968.58;;;15.38;59.48
76730;BME280;65653;53.106;18.046;2023-04-07T13:06:43;100970.92;;;14.83;60.28
76730;BME280;65653;53.106;18.046;2023-04-07T13:09:10;100971.45;;;14.71;61.21
76730;BME280;65653;53.106;18.046;2023-04-07T13:11:37;100969.23;;;15.48;59.29
76730;BME280;65653;53.106;18.046;2023-04-07T13:14:03;100971.45;;;15.97;56.96
76730;BME280;65653;53.106;18.046;2023-04-07T13:16:30;100976.16;;;15.66;57.06
76730;BME280;65653;53.106;18.046;2023-04-07T13:18:57;100981.48;;;15.49;57.35
76730;BME280;65653;53.106;18.046;2023-04-07T13:21:23;100977.29;;;15.87;56.41
76730;BME280;65653;53.106;18.046;2023-04-07T13:23:50;100974.88;;;15.90;57.03
76730;BME280;65653;53.106;18.046;2023-04-07T13:26:16;100976.76;;;16.52;55.76
76730;BME280;65653;53.106;18.046;2023-04-07T13:28:43;100976.48;;;17.20;52.96
76730;BME280;65653;53.106;18.046;2023-04-07T13:31:11;100976.58;;;17.96;51.86
76730;BME280;65653;53.106;18.046;2023-04-07T13:33:41;100975.27;;;17.30;52.26